sensor_id;sensor_type;location;lat;lon;timestamp;temperature;humidity
21115;DHT22;10715;48.546;9.896;2023-04-25T00:00:52;5.50;99.90
21115;DHT22;10715;48.546;9.896;2023-04-25T00:03:18;5.50;99.90
21115;DHT22;10715;48.546;9.896;2023-04-25T00:05:45;5.40;99.90
21115;DHT22;10715;48.546;9.896;2023-04-25T00:08:11;5.40;99.90
21115;DHT22;10715;48.546;9.896;2023-04-25T00:10:36;5.40;99.90
21115;DHT22;10715;48.546;9.896;2023-04-25T00:13:02;5.30;99.90
21115;DHT22;10715;48.546;9.896;2023-04-25T00:15:28;5.30;99.90
21115;DHT22;10715;48.546;9.896;2023-04-25T00:17:56;5.30;99.90
21115;DHT22;10715;48.546;9.896;2023-04-25T00:20:22;5.30;99.90
21115;DHT22;10715;48.546;9.896;2023-04-25T00:22:49;5.30;99.90
21115;DHT22;10715;48.546;9.896;2023-04-25T00:25:15;5.20;99.90
21115;DHT22;10715;48.546;9.896;2023-04-25T00:27:40;5.20;99.90
21115;DHT22;10715;48.546;9.896;2023-04-25T00:30:07;5.20;99.90
21115;DHT22;10715;48.546;9.896;2023-04-25T00:32:33;5.20;99.90
21115;DHT22;10715;48.546;9.896;2023-04-25T00:34:59;5.10;99.90
21115;DHT22;10715;48.546;9.896;2023-04-25T00:37:25;5.10;99.90
21115;DHT22;10715;48.546;9.896;2023-04-25T00:39:51;5.10;99.90
21115;DHT22;10715;48.546;9.896;2023-04-25T00:42:16;5.10;99.90
21115;DHT22;10715;48.546;9.896;2023-04-25T00:44:43;5.10;99.90
21115;DHT22;10715;48.546;9.896;2023-04-25T00:47:11;5.10;99.90
21115;DHT22;10715;48.546;9.896;2023-04-25T00:49:36;5.10;99.90
21115;DHT22;10715;48.546;9.896;2023-04-25T00:52:02;5.10;99.90
21115;DHT22;10715;48.546;9.896;2023-04-25T00:54:28;5.10;99.90
21115;DHT22;10715;48.546;9.896;2023-04-25T00:56:54;5.00;99.90
21115;DHT22;10715;48.546;9.896;2023-04-25T00:59:20;5.00;99.90
21115;DHT22;10715;48.546;9.896;2023-04-25T01:01:46;5.00;99.90
21115;DHT22;10715;48.546;9.896;2023-04-25T01:04:13;5.00;99.90
21115;DHT22;10715;48.546;9.896;2023-04-25T01:06:39;5.00;99.90
21115;DHT22;10715;48.546;9.896;2023-04-25T01:09:05;5.00;99.90
21115;DHT22;10715;48.546;9.896;2023-04-25T01:11:31;5.00;99.90
21115;DHT22;10715;48.546;9.896;2023-04-25T01:13:57;5.00;99.90
21115;DHT22;10715;48.546;9.896;2023-04-25T01:16:23;5.00;99.90
21115;DHT22;10715;48.546;9.896;2023-04-25T01:18:50;5.00;99.90
21115;DHT22;10715;48.546;9.896;2023-04-25T01:21:17;5.00;99.90
21115;DHT22;10715;48.546;9.896;2023-04-25T01:23:42;5.00;99.90
21115;DHT22;10715;48.546;9.896;2023-04-25T01:26:10;5.00;99.90
21115;DHT22;10715;48.546;9.896;2023-04-25T01:28:35;5.00;99.90
21115;DHT22;10715;48.546;9.896;2023-04-25T01:31:01;5.00;99.90
21115;DHT22;10715;48.546;9.896;2023-04-25T01:33:27;5.00;99.90
21115;DHT22;10715;48.546;9.896;2023-04-25T01:35:53;4.90;99.90
21115;DHT22;10715;48.546;9.896;2023-04-25T01:38:19;5.00;99.90
21115;DHT22;10715;48.546;9.896;2023-04-25T01:40:45;5.00;99.90
21115;DHT22;10715;48.546;9.896;2023-04-25T01:43:12;4.90;99.90
21115;DHT22;10715;48.546;9.896;2023-04-25T01:45:40;4.90;99.90
21115;DHT22;10715;48.546;9.896;2023-04-25T01:48:11;5.00;99.90
21115;DHT22;10715;48.546;9.896;2023-04-25T01:50:38;4.90;99.90
21115;DHT22;10715;48.546;9.896;2023-04-25T01:53:04;4.90;99.90
21115;DHT22;10715;48.546;9.896;2023-04-25T01:55:30;4.90;99.90
21115;DHT22;10715;48.546;9.896;2023-04-25T01:57:56;4.90;99.90
21115;DHT22;10715;48.546;9.896;2023-04-25T02:00:22;4.90;99.90
21115;DHT22;10715;48.546;9.896;2023-04-25T02:02:48;5.00;99.90
21115;DHT22;10715;48.546;9.896;2023-04-25T02:05:16;4.90;99.90
21115;DHT22;10715;48.546;9.896;2023-04-25T02:07:42;4.90;99.90
21115;DHT22;10715;48.546;9.896;2023-04-25T02:10:08;5.00;99.90
21115;DHT22;10715;48.546;9.896;2023-04-25T02:12:35;5.00;99.90
21115;DHT22;10715;48.546;9.896;2023-04-25T02:15:01;5.00;99.90
21115;DHT22;10715;48.546;9.896;2023-04-25T02:17:26;5.00;99.90
21115;DHT22;10715;48.546;9.896;2023-04-25T02:19:52;5.00;99.90
21115;DHT22;10715;48.546;9.896;2023-04-25T02:22:18;5.00;99.90
21115;DHT22;10715;48.546;9.896;2023-04-25T02:24:44;5.00;99.90
21115;DHT22;10715;48.546;9.896;2023-04-25T02:27:10;5.00;99.90
21115;DHT22;10715;48.546;9.896;2023-04-25T02:29:35;5.00;99.90
21115;DHT22;10715;48.546;9.896;2023-04-25T02:32:01;5.00;99.90
21115;DHT22;10715;48.546;9.896;2023-04-25T02:34:27;5.00;99.90
21115;DHT22;10715;48.546;9.896;2023-04-25T02:36:52;5.00;99.90
21115;DHT22;10715;48.546;9.896;2023-04-25T02:39:18;5.00;99.90
21115;DHT22;10715;48.546;9.896;2023-04-25T02:41:44;5.00;99.90
21115;DHT22;10715;48.546;9.896;2023-04-25T02:44:10;5.10;99.90
21115;DHT22;10715;48.546;9.896;2023-04-25T02:46:35;5.00;99.90
21115;DHT22;10715;48.546;9.896;2023-04-25T02:49:01;5.00;99.90
21115;DHT22;10715;48.546;9.896;2023-04-25T02:51:27;5.10;99.90
21115;DHT22;10715;48.546;9.896;2023-04-25T02:53:52;5.00;99.90
21115;DHT22;10715;48.546;9.896;2023-04-25T02:56:18;5.00;99.90
21115;DHT22;10715;48.546;9.896;2023-04-25T02:58:44;5.10;99.90
21115;DHT22;10715;48.546;9.896;2023-04-25T03:01:10;5.10;99.90
21115;DHT22;10715;48.546;9.896;2023-04-25T03:03:36;5.10;99.90
21115;DHT22;10715;48.546;9.896;2023-04-25T03:06:02;5.10;99.90
21115;DHT22;10715;48.546;9.896;2023-04-25T03:08:27;5.10;99.90
21115;DHT22;10715;48.546;9.896;2023-04-25T03:10:58;5.10;99.90
21115;DHT22;10715;48.546;9.896;2023-04-25T03:13:24;5.10;99.90
21115;DHT22;10715;48.546;9.896;2023-04-25T03:15:49;5.10;99.90
21115;DHT22;10715;48.546;9.896;2023-04-25T03:18:15;5.10;99.90
21115;DHT22;10715;48.546;9.896;2023-04-25T03:20:41;5.10;99.90
21115;DHT22;10715;48.546;9.896;2023-04-25T03:23:07;5.10;99.90
21115;DHT22;10715;48.546;9.896;2023-04-25T03:25:33;5.00;99.90
21115;DHT22;10715;48.546;9.896;2023-04-25T03:27:58;5.10;99.90
21115;DHT22;10715;48.546;9.896;2023-04-25T03:30:24;5.00;99.90
21115;DHT22;10715;48.546;9.896;2023-04-25T03:32:50;5.00;99.90
21115;DHT22;10715;48.546;9.896;2023-04-25T03:35:16;5.00;99.90
21115;DHT22;10715;48.546;9.896;2023-04-25T03:37:42;5.00;99.90
21115;DHT22;10715;48.546;9.896;2023-04-25T03:40:11;5.00;99.90
21115;DHT22;10715;48.546;9.896;2023-04-25T03:42:37;5.00;99.90
21115;DHT22;10715;48.546;9.896;2023-04-25T03:45:03;5.00;99.90
21115;DHT22;10715;48.546;9.896;2023-04-25T03:47:29;5.00;99.90
21115;DHT22;10715;48.546;9.896;2023-04-25T03:49:54;5.00;99.90
21115;DHT22;10715;48.546;9.896;2023-04-25T03:52:20;5.00;99.90
21115;DHT22;10715;48.546;9.896;2023-04-25T03:54:46;5.00;99.90
21115;DHT22;10715;48.546;9.896;2023-04-25T03:57:12;5.00;99.90
21115;DHT22;10715;48.546;9.896;2023-04-25T03:59:37;5.00;99.90
21115;DHT22;10715;48.546;9.896;2023-04-25T04:02:03;5.00;99.90
21115;DHT22;10715;48.546;9.896;2023-04-25T04:04:29;5.10;99.90
21115;DHT22;10715;48.546;9.896;2023-04-25T04:06:55;5.10;99.90
21115;DHT22;10715;48.546;9.896;2023-04-25T04:09:21;5.10;99.90
21115;DHT22;10715;48.546;9.896;2023-04-25T04:11:47;5.10;99.90
21115;DHT22;10715;48.546;9.896;2023-04-25T04:14:13;5.10;99.90
21115;DHT22;10715;48.546;9.896;2023-04-25T04:16:38;5.10;99.90
21115;DHT22;10715;48.546;9.896;2023-04-25T04:19:05;5.00;99.90
21115;DHT22;10715;48.546;9.896;2023-04-25T04:21:30;5.10;99.90
21115;DHT22;10715;48.546;9.896;2023-04-25T04:23:57;5.00;99.90
21115;DHT22;10715;48.546;9.896;2023-04-25T04:26:25;5.00;99.90
21115;DHT22;10715;48.546;9.896;2023-04-25T04:28:51;5.00;99.90
21115;DHT22;10715;48.546;9.896;2023-04-25T04:31:20;5.00;99.90
21115;DHT22;10715;48.546;9.896;2023-04-25T04:33:46;5.00;99.90
21115;DHT22;10715;48.546;9.896;2023-04-25T04:36:12;4.90;99.90
21115;DHT22;10715;48.546;9.896;2023-04-25T04:38:38;4.90;99.90
21115;DHT22;10715;48.546;9.896;2023-04-25T04:41:05;4.90;99.90
21115;DHT22;10715;48.546;9.896;2023-04-25T04:43:31;4.90;99.90
21115;DHT22;10715;48.546;9.896;2023-04-25T04:46:00;4.90;99.90
21115;DHT22;10715;48.546;9.896;2023-04-25T04:48:26;5.00;99.90
21115;DHT22;10715;48.546;9.896;2023-04-25T04:50:52;4.90;99.90
21115;DHT22;10715;48.546;9.896;2023-04-25T04:53:18;4.90;99.90
21115;DHT22;10715;48.546;9.896;2023-04-25T04:55:44;4.90;99.90
21115;DHT22;10715;48.546;9.896;2023-04-25T04:58:09;4.90;99.90
21115;DHT22;10715;48.546;9.896;2023-04-25T05:00:35;5.00;99.90
21115;DHT22;10715;48.546;9.896;2023-04-25T05:03:01;5.00;99.90
21115;DHT22;10715;48.546;9.896;2023-04-25T05:05:27;4.90;99.90
21115;DHT22;10715;48.546;9.896;2023-04-25T05:07:52;5.00;99.90
21115;DHT22;10715;48.546;9.896;2023-04-25T05:10:19;4.90;99.90
21115;DHT22;10715;48.546;9.896;2023-04-25T05:12:45;4.90;99.90
21115;DHT22;10715;48.546;9.896;2023-04-25T05:15:11;4.90;99.90
21115;DHT22;10715;48.546;9.896;2023-04-25T05:17:37;4.90;99.90
21115;DHT22;10715;48.546;9.896;2023-04-25T05:20:05;5.00;99.90
21115;DHT22;10715;48.546;9.896;2023-04-25T05:22:32;5.00;99.90
21115;DHT22;10715;48.546;9.896;2023-04-25T05:24:58;5.00;99.90
21115;DHT22;10715;48.546;9.896;2023-04-25T05:27:23;5.00;99.90
21115;DHT22;10715;48.546;9.896;2023-04-25T05:29:49;5.10;99.90
21115;DHT22;10715;48.546;9.896;2023-04-25T05:32:15;5.10;99.90
21115;DHT22;10715;48.546;9.896;2023-04-25T05:34:41;5.10;99.90
21115;DHT22;10715;48.546;9.896;2023-04-25T05:37:07;5.20;99.90
21115;DHT22;10715;48.546;9.896;2023-04-25T05:39:33;5.20;99.90
21115;DHT22;10715;48.546;9.896;2023-04-25T05:41:58;5.20;99.90
21115;DHT22;10715;48.546;9.896;2023-04-25T05:44:24;5.30;99.90
21115;DHT22;10715;48.546;9.896;2023-04-25T05:46:50;5.30;99.90
21115;DHT22;10715;48.546;9.896;2023-04-25T05:49:16;5.30;99.90
21115;DHT22;10715;48.546;9.896;2023-04-25T05:51:41;5.40;99.90
21115;DHT22;10715;48.546;9.896;2023-04-25T05:54:07;5.40;99.90
21115;DHT22;10715;48.546;9.896;2023-04-25T05:56:33;5.50;99.90
21115;DHT22;10715;48.546;9.896;2023-04-25T05:58:58;5.50;99.90
21115;DHT22;10715;48.546;9.896;2023-04-25T06:01:24;5.50;99.90
21115;DHT22;10715;48.546;9.896;2023-04-25T06:03:50;5.60;99.90
21115;DHT22;10715;48.546;9.896;2023-04-25T06:06:17;5.60;99.90
21115;DHT22;10715;48.546;9.896;2023-04-25T06:08:42;5.70;99.90
21115;DHT22;10715;48.546;9.896;2023-04-25T06:11:08;5.70;99.90
21115;DHT22;10715;48.546;9.896;2023-04-25T06:13:34;5.70;99.90
21115;DHT22;10715;48.546;9.896;2023-04-25T06:15:59;5.70;99.90
21115;DHT22;10715;48.546;9.896;2023-04-25T06:18:25;5.80;99.90
21115;DHT22;10715;48.546;9.896;2023-04-25T06:20:51;5.80;99.90
21115;DHT22;10715;48.546;9.896;2023-04-25T06:23:16;5.80;99.90
21115;DHT22;10715;48.546;9.896;2023-04-25T06:25:42;5.90;99.90
21115;DHT22;10715;48.546;9.896;2023-04-25T06:28:08;5.90;99.90
21115;DHT22;10715;48.546;9.896;2023-04-25T06:30:33;5.90;99.90
21115;DHT22;10715;48.546;9.896;2023-04-25T06:32:59;6.00;99.90
21115;DHT22;10715;48.546;9.896;2023-04-25T06:35:25;6.00;99.90
21115;DHT22;10715;48.546;9.896;2023-04-25T06:37:50;6.00;99.90
21115;DHT22;10715;48.546;9.896;2023-04-25T06:40:16;6.00;99.90
21115;DHT22;10715;48.546;9.896;2023-04-25T06:42:43;6.10;99.90
21115;DHT22;10715;48.546;9.896;2023-04-25T06:45:08;6.10;99.90
21115;DHT22;10715;48.546;9.896;2023-04-25T06:47:34;6.10;99.90
21115;DHT22;10715;48.546;9.896;2023-04-25T06:50:00;6.10;99.90
21115;DHT22;10715;48.546;9.896;2023-04-25T06:52:26;6.20;99.90
21115;DHT22;10715;48.546;9.896;2023-04-25T06:54:52;6.20;99.90
21115;DHT22;10715;48.546;9.896;2023-04-25T06:57:17;6.20;99.90
21115;DHT22;10715;48.546;9.896;2023-04-25T06:59:43;6.20;99.90
21115;DHT22;10715;48.546;9.896;2023-04-25T07:02:09;6.30;99.90
21115;DHT22;10715;48.546;9.896;2023-04-25T07:04:34;6.30;99.90
21115;DHT22;10715;48.546;9.896;2023-04-25T07:07:00;6.30;99.90
21115;DHT22;10715;48.546;9.896;2023-04-25T07:09:28;6.30;99.90
21115;DHT22;10715;48.546;9.896;2023-04-25T07:11:53;6.40;99.90
21115;DHT22;10715;48.546;9.896;2023-04-25T07:14:19;6.40;99.90
21115;DHT22;10715;48.546;9.896;2023-04-25T07:16:45;6.50;99.90
21115;DHT22;10715;48.546;9.896;2023-04-25T07:19:11;6.50;99.90
21115;DHT22;10715;48.546;9.896;2023-04-25T07:21:37;6.60;99.90
21115;DHT22;10715;48.546;9.896;2023-04-25T07:24:02;6.60;99.90
21115;DHT22;10715;48.546;9.896;2023-04-25T07:26:28;6.70;99.90
21115;DHT22;10715;48.546;9.896;2023-04-25T07:28:54;6.70;99.90
21115;DHT22;10715;48.546;9.896;2023-04-25T07:31:20;6.70;99.90
21115;DHT22;10715;48.546;9.896;2023-04-25T07:33:46;6.80;99.90
21115;DHT22;10715;48.546;9.896;2023-04-25T07:36:12;6.80;99.90
21115;DHT22;10715;48.546;9.896;2023-04-25T07:38:39;6.80;99.90
21115;DHT22;10715;48.546;9.896;2023-04-25T07:41:04;6.80;99.90
21115;DHT22;10715;48.546;9.896;2023-04-25T07:43:30;6.80;99.90
21115;DHT22;10715;48.546;9.896;2023-04-25T07:45:56;6.80;99.90
21115;DHT22;10715;48.546;9.896;2023-04-25T07:48:22;6.80;99.90
21115;DHT22;10715;48.546;9.896;2023-04-25T07:50:49;6.80;99.90
21115;DHT22;10715;48.546;9.896;2023-04-25T07:53:15;6.80;99.90
21115;DHT22;10715;48.546;9.896;2023-04-25T07:55:41;6.80;99.90
21115;DHT22;10715;48.546;9.896;2023-04-25T07:58:07;6.80;99.90
21115;DHT22;10715;48.546;9.896;2023-04-25T08:00:33;6.80;99.90
21115;DHT22;10715;48.546;9.896;2023-04-25T08:02:59;6.80;99.90
21115;DHT22;10715;48.546;9.896;2023-04-25T08:05:24;6.80;99.90
21115;DHT22;10715;48.546;9.896;2023-04-25T08:07:50;6.80;99.90
21115;DHT22;10715;48.546;9.896;2023-04-25T08:10:16;6.80;99.90
21115;DHT22;10715;48.546;9.896;2023-04-25T08:12:42;6.80;99.90
21115;DHT22;10715;48.546;9.896;2023-04-25T08:15:08;6.80;99.90
21115;DHT22;10715;48.546;9.896;2023-04-25T08:17:34;6.90;99.90
21115;DHT22;10715;48.546;9.896;2023-04-25T08:20:00;6.90;99.90
21115;DHT22;10715;48.546;9.896;2023-04-25T08:22:25;6.90;99.90
21115;DHT22;10715;48.546;9.896;2023-04-25T08:24:51;6.90;99.90
21115;DHT22;10715;48.546;9.896;2023-04-25T08:27:18;6.90;99.90
21115;DHT22;10715;48.546;9.896;2023-04-25T08:29:44;6.90;99.90
21115;DHT22;10715;48.546;9.896;2023-04-25T08:32:10;7.00;99.90
21115;DHT22;10715;48.546;9.896;2023-04-25T08:34:36;7.00;99.90
21115;DHT22;10715;48.546;9.896;2023-04-25T08:37:03;7.00;99.90
21115;DHT22;10715;48.546;9.896;2023-04-25T08:39:29;7.00;99.90
21115;DHT22;10715;48.546;9.896;2023-04-25T08:41:56;7.10;99.90
21115;DHT22;10715;48.546;9.896;2023-04-25T08:44:22;7.10;99.90
21115;DHT22;10715;48.546;9.896;2023-04-25T08:46:49;7.10;99.90
21115;DHT22;10715;48.546;9.896;2023-04-25T08:49:16;7.20;99.90
21115;DHT22;10715;48.546;9.896;2023-04-25T08:51:46;7.20;99.90
21115;DHT22;10715;48.546;9.896;2023-04-25T08:54:13;7.20;99.90
21115;DHT22;10715;48.546;9.896;2023-04-25T08:56:49;7.20;99.90
21115;DHT22;10715;48.546;9.896;2023-04-25T08:59:15;7.20;99.90
21115;DHT22;10715;48.546;9.896;2023-04-25T09:01:40;7.20;99.90
21115;DHT22;10715;48.546;9.896;2023-04-25T09:04:06;7.10;99.90
21115;DHT22;10715;48.546;9.896;2023-04-25T09:06:32;7.10;99.90
21115;DHT22;10715;48.546;9.896;2023-04-25T09:09:07;7.20;99.90
21115;DHT22;10715;48.546;9.896;2023-04-25T09:11:35;7.10;99.90
21115;DHT22;10715;48.546;9.896;2023-04-25T09:17:13;7.20;99.90
21115;DHT22;10715;48.546;9.896;2023-04-25T09:19:39;7.20;99.90
21115;DHT22;10715;48.546;9.896;2023-04-25T09:22:06;7.20;99.90
21115;DHT22;10715;48.546;9.896;2023-04-25T09:24:42;7.10;99.90
21115;DHT22;10715;48.546;9.896;2023-04-25T09:27:11;7.10;99.90
21115;DHT22;10715;48.546;9.896;2023-04-25T09:29:39;7.10;99.90
21115;DHT22;10715;48.546;9.896;2023-04-25T09:32:21;7.10;99.90
21115;DHT22;10715;48.546;9.896;2023-04-25T09:34:52;7.10;99.90
21115;DHT22;10715;48.546;9.896;2023-04-25T09:37:26;7.00;99.90
21115;DHT22;10715;48.546;9.896;2023-04-25T09:39:54;7.00;99.90
21115;DHT22;10715;48.546;9.896;2023-04-25T09:42:25;7.00;99.90
21115;DHT22;10715;48.546;9.896;2023-04-25T09:44:54;7.00;99.90
21115;DHT22;10715;48.546;9.896;2023-04-25T09:47:22;7.00;99.90
21115;DHT22;10715;48.546;9.896;2023-04-25T09:49:49;7.00;99.90
21115;DHT22;10715;48.546;9.896;2023-04-25T09:52:21;6.90;99.90
21115;DHT22;10715;48.546;9.896;2023-04-25T09:54:48;6.90;99.90
21115;DHT22;10715;48.546;9.896;2023-04-25T09:59:44;6.90;99.90
21115;DHT22;10715;48.546;9.896;2023-04-25T10:02:11;6.90;99.90
21115;DHT22;10715;48.546;9.896;2023-04-25T10:04:38;6.90;99.90
21115;DHT22;10715;48.546;9.896;2023-04-25T10:07:07;6.90;99.90
21115;DHT22;10715;48.546;9.896;2023-04-25T10:09:36;6.90;99.90
21115;DHT22;10715;48.546;9.896;2023-04-25T10:12:03;6.90;99.90
21115;DHT22;10715;48.546;9.896;2023-04-25T10:14:32;6.90;99.90
21115;DHT22;10715;48.546;9.896;2023-04-25T10:16:58;6.90;99.90
21115;DHT22;10715;48.546;9.896;2023-04-25T10:19:25;7.00;99.90
21115;DHT22;10715;48.546;9.896;2023-04-25T10:22:17;7.00;99.90
21115;DHT22;10715;48.546;9.896;2023-04-25T10:24:46;7.00;99.90
21115;DHT22;10715;48.546;9.896;2023-04-25T10:27:13;7.00;99.90
21115;DHT22;10715;48.546;9.896;2023-04-25T10:29:39;7.00;99.90
21115;DHT22;10715;48.546;9.896;2023-04-25T10:32:08;7.00;99.90
21115;DHT22;10715;48.546;9.896;2023-04-25T10:34:41;7.00;99.90
21115;DHT22;10715;48.546;9.896;2023-04-25T10:37:10;7.00;99.90
21115;DHT22;10715;48.546;9.896;2023-04-25T10:39:38;7.00;99.90
21115;DHT22;10715;48.546;9.896;2023-04-25T10:42:04;6.90;99.90
21115;DHT22;10715;48.546;9.896;2023-04-25T10:44:31;6.90;99.90
21115;DHT22;10715;48.546;9.896;2023-04-25T10:46:58;6.90;99.90
21115;DHT22;10715;48.546;9.896;2023-04-25T10:49:38;6.90;99.90
21115;DHT22;10715;48.546;9.896;2023-04-25T10:52:26;6.90;99.90
21115;DHT22;10715;48.546;9.896;2023-04-25T10:54:54;6.90;99.90
21115;DHT22;10715;48.546;9.896;2023-04-25T11:00:05;6.90;99.90
21115;DHT22;10715;48.546;9.896;2023-04-25T11:02:32;6.80;99.90
21115;DHT22;10715;48.546;9.896;2023-04-25T11:05:02;6.80;99.90
21115;DHT22;10715;48.546;9.896;2023-04-25T11:10:04;6.80;99.90
21115;DHT22;10715;48.546;9.896;2023-04-25T11:12:31;6.80;99.90
21115;DHT22;10715;48.546;9.896;2023-04-25T11:15:05;6.80;99.90
21115;DHT22;10715;48.546;9.896;2023-04-25T11:17:31;6.80;99.90
21115;DHT22;10715;48.546;9.896;2023-04-25T11:19:57;6.80;99.90
21115;DHT22;10715;48.546;9.896;2023-04-25T11:22:23;6.80;99.90
21115;DHT22;10715;48.546;9.896;2023-04-25T11:24:49;6.80;99.90
21115;DHT22;10715;48.546;9.896;2023-04-25T11:27:15;6.80;99.90
21115;DHT22;10715;48.546;9.896;2023-04-25T11:29:41;6.80;99.90
21115;DHT22;10715;48.546;9.896;2023-04-25T11:32:07;6.70;99.90
21115;DHT22;10715;48.546;9.896;2023-04-25T11:34:33;6.80;99.90
21115;DHT22;10715;48.546;9.896;2023-04-25T11:37:00;6.80;99.90
21115;DHT22;10715;48.546;9.896;2023-04-25T11:39:27;6.80;99.90
21115;DHT22;10715;48.546;9.896;2023-04-25T11:41:54;6.70;99.90
21115;DHT22;10715;48.546;9.896;2023-04-25T11:44:20;6.70;99.90
21115;DHT22;10715;48.546;9.896;2023-04-25T11:46:47;6.70;99.90
21115;DHT22;10715;48.546;9.896;2023-04-25T11:49:13;6.70;99.90
21115;DHT22;10715;48.546;9.896;2023-04-25T11:51:40;6.60;99.90
21115;DHT22;10715;48.546;9.896;2023-04-25T11:54:06;6.60;99.90
21115;DHT22;10715;48.546;9.896;2023-04-25T11:56:32;6.70;99.90
21115;DHT22;10715;48.546;9.896;2023-04-25T11:59:03;6.70;99.90
21115;DHT22;10715;48.546;9.896;2023-04-25T12:01:31;6.70;99.90
21115;DHT22;10715;48.546;9.896;2023-04-25T12:03:58;6.70;99.90
21115;DHT22;10715;48.546;9.896;2023-04-25T12:06:28;6.70;99.90
21115;DHT22;10715;48.546;9.896;2023-04-25T12:09:04;6.70;99.90
21115;DHT22;10715;48.546;9.896;2023-04-25T12:11:41;6.70;99.90
21115;DHT22;10715;48.546;9.896;2023-04-25T12:14:07;6.70;99.90
21115;DHT22;10715;48.546;9.896;2023-04-25T12:16:46;6.60;99.90
21115;DHT22;10715;48.546;9.896;2023-04-25T12:19:16;6.60;99.90
21115;DHT22;10715;48.546;9.896;2023-04-25T12:21:43;6.60;99.90
21115;DHT22;10715;48.546;9.896;2023-04-25T12:24:17;6.50;99.90
21115;DHT22;10715;48.546;9.896;2023-04-25T12:27:00;6.50;99.90
21115;DHT22;10715;48.546;9.896;2023-04-25T12:29:27;6.40;99.90
21115;DHT22;10715;48.546;9.896;2023-04-25T12:31:56;6.40;99.90
21115;DHT22;10715;48.546;9.896;2023-04-25T12:34:23;6.40;99.90
21115;DHT22;10715;48.546;9.896;2023-04-25T12:36:50;6.30;99.90
21115;DHT22;10715;48.546;9.896;2023-04-25T12:39:21;6.20;99.90
21115;DHT22;10715;48.546;9.896;2023-04-25T12:41:51;6.20;99.90
21115;DHT22;10715;48.546;9.896;2023-04-25T12:44:20;6.20;99.90
21115;DHT22;10715;48.546;9.896;2023-04-25T12:46:47;6.10;99.90
21115;DHT22;10715;48.546;9.896;2023-04-25T12:49:12;6.10;99.90
21115;DHT22;10715;48.546;9.896;2023-04-25T12:51:38;6.10;99.90
21115;DHT22;10715;48.546;9.896;2023-04-25T12:54:05;6.10;99.90
21115;DHT22;10715;48.546;9.896;2023-04-25T12:56:32;6.00;99.90
21115;DHT22;10715;48.546;9.896;2023-04-25T12:58:58;6.00;99.90
21115;DHT22;10715;48.546;9.896;2023-04-25T13:01:25;6.00;99.90
21115;DHT22;10715;48.546;9.896;2023-04-25T13:03:52;6.00;99.90
21115;DHT22;10715;48.546;9.896;2023-04-25T13:06:19;6.00;99.90
21115;DHT22;10715;48.546;9.896;2023-04-25T13:08:45;6.00;99.90
21115;DHT22;10715;48.546;9.896;2023-04-25T13:11:11;6.10;99.90
21115;DHT22;10715;48.546;9.896;2023-04-25T13:13:37;6.00;99.90
21115;DHT22;10715;48.546;9.896;2023-04-25T13:16:04;6.00;99.90
21115;DHT22;10715;48.546;9.896;2023-04-25T13:18:31;6.10;99.90
21115;DHT22;10715;48.546;9.896;2023-04-25T13:20:57;6.10;99.90
21115;DHT22;10715;48.546;9.896;2023-04-25T13:23:25;6.20;99.90
21115;DHT22;10715;48.546;9.896;2023-04-25T13:25:57;6.20;99.90
21115;DHT22;10715;48.546;9.896;2023-04-25T13:28:24;6.20;99.90
21115;DHT22;10715;48.546;9.896;2023-04-25T13:30:50;6.30;99.90
21115;DHT22;10715;48.546;9.896;2023-04-25T13:33:17;6.30;99.90
21115;DHT22;10715;48.546;9.896;2023-04-25T13:35:43;6.40;99.90
21115;DHT22;10715;48.546;9.896;2023-04-25T13:38:12;6.50;99.90
21115;DHT22;10715;48.546;9.896;2023-04-25T13:40:38;6.50;99.90
21115;DHT22;10715;48.546;9.896;2023-04-25T13:43:04;6.50;99.90
21115;DHT22;10715;48.546;9.896;2023-04-25T13:45:31;6.50;99.90
21115;DHT22;10715;48.546;9.896;2023-04-25T13:47:57;6.50;99.90
21115;DHT22;10715;48.546;9.896;2023-04-25T13:50:23;6.50;99.90
21115;DHT22;10715;48.546;9.896;2023-04-25T13:52:48;6.60;99.90
21115;DHT22;10715;48.546;9.896;2023-04-25T13:55:14;6.60;99.90
21115;DHT22;10715;48.546;9.896;2023-04-25T13:57:40;6.60;99.90
21115;DHT22;10715;48.546;9.896;2023-04-25T14:00:06;6.70;99.90
21115;DHT22;10715;48.546;9.896;2023-04-25T14:02:37;6.70;99.90
21115;DHT22;10715;48.546;9.896;2023-04-25T14:05:06;6.70;99.90
21115;DHT22;10715;48.546;9.896;2023-04-25T14:07:36;6.80;99.90
21115;DHT22;10715;48.546;9.896;2023-04-25T14:10:03;6.80;99.90
21115;DHT22;10715;48.546;9.896;2023-04-25T14:12:30;6.80;99.90
21115;DHT22;10715;48.546;9.896;2023-04-25T14:14:56;6.90;99.90
21115;DHT22;10715;48.546;9.896;2023-04-25T14:17:21;6.90;99.90
21115;DHT22;10715;48.546;9.896;2023-04-25T14:19:47;6.90;99.90
21115;DHT22;10715;48.546;9.896;2023-04-25T14:22:14;6.90;99.90
21115;DHT22;10715;48.546;9.896;2023-04-25T14:24:41;7.00;99.90
21115;DHT22;10715;48.546;9.896;2023-04-25T14:27:06;7.00;99.90
21115;DHT22;10715;48.546;9.896;2023-04-25T14:29:32;7.00;99.90
21115;DHT22;10715;48.546;9.896;2023-04-25T14:31:58;7.10;99.90
21115;DHT22;10715;48.546;9.896;2023-04-25T14:34:24;7.10;99.90
21115;DHT22;10715;48.546;9.896;2023-04-25T14:36:51;7.10;99.90
21115;DHT22;10715;48.546;9.896;2023-04-25T14:39:17;7.20;99.90
21115;DHT22;10715;48.546;9.896;2023-04-25T14:41:44;7.20;99.90
21115;DHT22;10715;48.546;9.896;2023-04-25T14:44:10;7.30;99.90
21115;DHT22;10715;48.546;9.896;2023-04-25T14:46:37;7.30;99.90
21115;DHT22;10715;48.546;9.896;2023-04-25T14:49:03;7.30;99.90
21115;DHT22;10715;48.546;9.896;2023-04-25T14:51:29;7.40;99.90
21115;DHT22;10715;48.546;9.896;2023-04-25T14:53:55;7.40;99.90
21115;DHT22;10715;48.546;9.896;2023-04-25T14:56:21;7.40;99.90
21115;DHT22;10715;48.546;9.896;2023-04-25T14:58:46;7.30;99.90
21115;DHT22;10715;48.546;9.896;2023-04-25T15:01:12;7.40;99.90
21115;DHT22;10715;48.546;9.896;2023-04-25T15:03:41;7.40;99.90
21115;DHT22;10715;48.546;9.896;2023-04-25T15:06:07;7.40;99.90
21115;DHT22;10715;48.546;9.896;2023-04-25T15:08:33;7.40;99.90
21115;DHT22;10715;48.546;9.896;2023-04-25T15:10:59;7.40;99.90
21115;DHT22;10715;48.546;9.896;2023-04-25T15:13:25;7.40;99.90
21115;DHT22;10715;48.546;9.896;2023-04-25T15:15:51;7.50;99.90
21115;DHT22;10715;48.546;9.896;2023-04-25T15:18:20;7.50;99.90
21115;DHT22;10715;48.546;9.896;2023-04-25T15:20:48;7.50;99.90
21115;DHT22;10715;48.546;9.896;2023-04-25T15:23:13;7.50;99.90
21115;DHT22;10715;48.546;9.896;2023-04-25T15:25:39;7.50;99.90
21115;DHT22;10715;48.546;9.896;2023-04-25T15:28:05;7.50;99.90
21115;DHT22;10715;48.546;9.896;2023-04-25T15:30:30;7.50;99.90
21115;DHT22;10715;48.546;9.896;2023-04-25T15:32:56;7.60;99.90
21115;DHT22;10715;48.546;9.896;2023-04-25T15:35:22;7.60;99.90
21115;DHT22;10715;48.546;9.896;2023-04-25T15:37:47;7.60;99.90
21115;DHT22;10715;48.546;9.896;2023-04-25T15:40:15;7.60;99.90
21115;DHT22;10715;48.546;9.896;2023-04-25T15:42:51;7.60;99.90
21115;DHT22;10715;48.546;9.896;2023-04-25T15:45:19;7.60;99.90
21115;DHT22;10715;48.546;9.896;2023-04-25T15:47:45;7.60;99.90
21115;DHT22;10715;48.546;9.896;2023-04-25T15:50:11;7.60;99.90
21115;DHT22;10715;48.546;9.896;2023-04-25T15:52:38;7.60;99.90